Time;durP1;ratioP1;P1;durP2;ratioP2;P2;SDS_P1;SDS_P2;PMS_P1;PMS_P2;Temp;Humidity;BMP_temperature;BMP_pressure;BME280_temperature;BME280_humidity;BME280_pressure;Samples;Min_cycle;Max_cycle;Signal;HPM_P1;HPM_P2
2021/03/06 00:00:56;;;;;;;5.47;1.40;;;-3.40;99.90;;;;;;5003056;28;20393;-64
2021/03/06 00:03:25;;;;;;;4.03;1.53;;;-3.40;99.90;;;;;;5002645;28;20058;-61
2021/03/06 00:05:55;;;;;;;4.28;1.45;;;-3.30;99.90;;;;;;5001501;28;20566;-62
2021/03/06 00:08:26;;;;;;;4.95;1.35;;;-3.30;99.90;;;;;;5003073;28;20046;-65
2021/03/06 00:10:55;;;;;;;6.28;1.92;;;-3.20;99.90;;;;;;4999087;28;20057;-62
2021/03/06 00:13:23;;;;;;;3.53;2.08;;;-3.10;99.90;;;;;;5001985;28;20045;-62
2021/03/06 00:15:50;;;;;;;4.22;1.40;;;-3.00;99.90;;;;;;5001399;28;20417;-61
2021/03/06 00:18:17;;;;;;;3.97;1.63;;;-2.90;99.90;;;;;;4998959;28;20050;-61
2021/03/06 00:20:44;;;;;;;1.20;1.10;;;-2.80;99.90;;;;;;5001043;28;20049;-62
2021/03/06 00:23:10;;;;;;;3.13;1.00;;;-2.70;99.90;;;;;;5007991;28;20571;-61
2021/03/06 00:25:36;;;;;;;4.10;0.80;;;-2.60;99.90;;;;;;5000539;28;20104;-61
2021/03/06 00:28:03;;;;;;;1.13;0.90;;;-2.50;99.90;;;;;;5002580;28;20050;-62
2021/03/06 00:30:31;;;;;;;7.25;1.73;;;-2.30;99.90;;;;;;5002895;28;20401;-62
2021/03/06 00:32:57;;;;;;;5.43;1.80;;;-2.20;99.90;;;;;;5001383;28;20061;-62
2021/03/06 00:35:24;;;;;;;3.00;1.80;;;-2.20;99.90;;;;;;5004465;28;20532;-62
2021/03/06 00:37:51;;;;;;;7.03;2.15;;;-2.10;99.90;;;;;;4995345;28;20064;-61
2021/03/06 00:40:18;;;;;;;7.07;1.20;;;-2.10;99.90;;;;;;5001607;28;20054;-62
2021/03/06 00:42:44;;;;;;;2.85;1.45;;;-2.00;99.90;;;;;;5001623;28;20505;-62
2021/03/06 00:45:11;;;;;;;2.25;1.13;;;-1.90;99.90;;;;;;4999776;28;20155;-62
2021/03/06 00:47:38;;;;;;;2.63;1.05;;;-1.90;99.90;;;;;;5001896;28;20147;-61
2021/03/06 00:50:14;;;;;;;6.07;1.10;;;-1.90;99.90;;;;;;4999879;28;20077;-62
2021/03/06 00:52:41;;;;;;;3.33;1.10;;;-1.90;99.90;;;;;;5000102;28;20054;-62
2021/03/06 00:55:11;;;;;;;2.88;1.55;;;-1.90;99.90;;;;;;4999307;28;20060;-62
2021/03/06 00:57:39;;;;;;;3.75;0.80;;;-1.90;99.90;;;;;;4989536;28;20054;-62
2021/03/06 01:00:08;;;;;;;3.05;1.33;;;-1.90;99.90;;;;;;4998233;28;20128;-63
2021/03/06 01:02:34;;;;;;;2.95;2.13;;;-1.90;99.90;;;;;;5001294;28;20406;-61
2021/03/06 01:05:05;;;;;;;4.15;2.00;;;-1.90;99.90;;;;;;4999458;28;20143;-64
2021/03/06 01:07:31;;;;;;;4.65;1.38;;;-1.90;99.90;;;;;;5003850;28;20045;-62
2021/03/06 01:09:57;;;;;;;5.03;1.98;;;-1.90;99.90;;;;;;4998283;28;20801;-61
2021/03/06 01:12:24;;;;;;;5.85;1.45;;;-2.00;99.90;;;;;;5001652;28;20050;-64
2021/03/06 01:14:51;;;;;;;3.97;1.13;;;-2.00;99.90;;;;;;5000858;28;20050;-61
2021/03/06 01:17:18;;;;;;;6.30;1.27;;;-2.10;99.90;;;;;;5000682;28;20070;-64
2021/03/06 01:19:44;;;;;;;2.15;1.40;;;-2.10;99.90;;;;;;5000868;28;20053;-62
2021/03/06 01:22:11;;;;;;;7.15;2.90;;;-2.00;99.90;;;;;;5000491;28;20050;-63
2021/03/06 01:24:37;;;;;;;3.65;1.40;;;-2.00;99.90;;;;;;4999654;28;20137;-62
2021/03/06 01:27:04;;;;;;;3.35;1.15;;;-1.90;99.90;;;;;;4999838;28;20046;-61
2021/03/06 01:29:30;;;;;;;7.88;2.03;;;-1.90;99.90;;;;;;5002424;28;20073;-62
2021/03/06 01:31:57;;;;;;;4.40;0.95;;;-1.90;99.90;;;;;;4996077;28;20050;-63
2021/03/06 01:34:24;;;;;;;1.17;0.75;;;-1.80;99.90;;;;;;5001808;28;20042;-64
2021/03/06 01:36:52;;;;;;;2.15;1.05;;;-1.50;99.90;;;;;;4998141;28;20046;-62
2021/03/06 01:39:18;;;;;;;2.03;1.02;;;-1.10;99.90;;;;;;4999974;28;20076;-63
2021/03/06 01:41:45;;;;;;;0.85;0.60;;;-0.70;99.90;;;;;;4998164;28;20058;-63
2021/03/06 01:44:11;;;;;;;1.63;0.63;;;-0.60;99.90;;;;;;5000299;28;20071;-62
2021/03/06 01:46:38;;;;;;;2.85;0.75;;;-0.40;99.90;;;;;;4997603;28;20119;-62
2021/03/06 01:49:04;;;;;;;3.83;0.77;;;-0.30;99.90;;;;;;5002160;28;20088;-62
2021/03/06 01:51:31;;;;;;;1.02;0.85;;;-0.20;99.90;;;;;;4996875;28;20045;-62
2021/03/06 01:53:59;;;;;;;13.30;1.00;;;-0.10;99.90;;;;;;5003625;28;20058;-62
2021/03/06 01:56:26;;;;;;;1.00;0.40;;;-0.10;99.90;;;;;;5004012;28;20053;-61
2021/03/06 01:58:53;;;;;;;1.60;0.47;;;0.00;99.90;;;;;;5004449;28;20058;-63
2021/03/06 02:01:19;;;;;;;1.95;0.38;;;0.00;99.90;;;;;;5005706;28;20042;-61
2021/03/06 02:03:46;;;;;;;1.13;0.50;;;0.00;99.90;;;;;;5002668;28;20049;-62
2021/03/06 02:06:17;;;;;;;1.25;0.50;;;0.00;99.90;;;;;;5004427;28;20057;-62
2021/03/06 02:08:44;;;;;;;3.65;0.90;;;0.00;99.90;;;;;;5006597;28;20049;-64
2021/03/06 02:11:10;;;;;;;1.65;0.75;;;0.00;99.90;;;;;;5005460;28;20056;-61
2021/03/06 02:13:47;;;;;;;2.47;0.47;;;0.10;99.90;;;;;;5003184;28;20061;-61
2021/03/06 02:16:41;;;;;;;2.75;0.90;;;0.10;99.90;;;;;;5005587;28;20057;-65
2021/03/06 02:19:38;;;;;;;2.53;1.27;;;0.20;99.90;;;;;;5004575;28;20488;-62
2021/03/06 02:22:04;;;;;;;2.22;0.63;;;0.20;99.90;;;;;;5005500;28;20131;-64
2021/03/06 02:25:04;;;;;;;2.47;2.00;;;0.30;99.90;;;;;;5002836;28;20042;-62
2021/03/06 02:28:03;;;;;;;5.53;0.82;;;0.40;99.90;;;;;;5004437;28;20156;-61
2021/03/06 02:30:30;;;;;;;1.33;0.35;;;0.30;99.90;;;;;;5001844;28;20517;-61
2021/03/06 02:32:59;;;;;;;1.73;1.13;;;0.40;99.90;;;;;;5003527;28;20632;-61
2021/03/06 02:35:30;;;;;;;0.73;0.40;;;0.40;99.90;;;;;;5002614;28;20502;-62
2021/03/06 02:38:07;;;;;;;1.38;0.28;;;0.50;99.90;;;;;;5002317;28;20802;-61
2021/03/06 02:40:39;;;;;;;1.42;0.63;;;0.50;99.90;;;;;;5003651;28;20057;-63
2021/03/06 02:43:08;;;;;;;1.02;0.65;;;0.60;99.90;;;;;;5007877;28;20115;-62
2021/03/06 02:45:38;;;;;;;2.13;0.52;;;0.60;99.90;;;;;;5001911;28;20050;-61
2021/03/06 02:48:06;;;;;;;3.05;1.00;;;0.50;99.90;;;;;;5005467;28;20093;-62
2021/03/06 02:50:34;;;;;;;3.70;0.77;;;0.50;99.90;;;;;;5004173;28;20061;-61
2021/03/06 02:53:00;;;;;;;1.88;0.60;;;0.60;99.90;;;;;;5003078;28;20062;-61
2021/03/06 02:55:39;;;;;;;4.45;0.55;;;0.50;99.90;;;;;;5001433;28;20473;-62
2021/03/06 02:58:35;;;;;;;1.00;0.40;;;0.50;99.90;;;;;;5003246;28;20080;-61
2021/03/06 03:01:09;;;;;;;2.65;0.98;;;0.60;99.90;;;;;;5002254;28;20745;-64
2021/03/06 03:03:52;;;;;;;1.83;0.93;;;0.60;99.90;;;;;;5000759;28;20064;-61
2021/03/06 03:06:35;;;;;;;1.05;0.50;;;0.70;99.90;;;;;;4998020;28;20049;-61
2021/03/06 03:09:18;;;;;;;2.25;0.40;;;0.60;99.90;;;;;;5003525;28;20057;-61
2021/03/06 03:11:54;;;;;;;3.95;1.60;;;0.70;99.90;;;;;;5000936;28;20062;-61
2021/03/06 03:14:52;;;;;;;1.42;0.77;;;0.70;99.90;;;;;;5006307;28;20049;-62
2021/03/06 03:17:32;;;;;;;1.58;0.57;;;0.70;99.90;;;;;;4999892;28;20453;-65
2021/03/06 03:20:25;;;;;;;3.47;1.10;;;0.70;99.90;;;;;;4999356;28;20049;-62
2021/03/06 03:22:59;;;;;;;0.77;0.50;;;0.70;99.90;;;;;;5002914;28;21263;-61
2021/03/06 03:25:28;;;;;;;1.48;0.60;;;0.70;99.90;;;;;;4999007;28;20065;-63
2021/03/06 03:27:56;;;;;;;3.35;1.50;;;0.80;99.90;;;;;;5000808;28;21651;-62
2021/03/06 03:30:24;;;;;;;1.38;0.82;;;0.80;99.90;;;;;;5001894;28;20074;-61
2021/03/06 03:32:53;;;;;;;2.10;0.50;;;0.80;99.90;;;;;;4996806;28;20045;-61
2021/03/06 03:35:22;;;;;;;0.40;0.30;;;0.80;99.90;;;;;;5003023;28;20046;-62
2021/03/06 03:37:52;;;;;;;1.77;0.68;;;0.80;99.90;;;;;;5006091;28;20883;-61
2021/03/06 03:40:19;;;;;;;1.38;0.50;;;0.80;99.90;;;;;;5001674;28;20075;-63
2021/03/06 03:42:48;;;;;;;0.98;0.30;;;0.80;99.90;;;;;;5002709;28;20064;-62
2021/03/06 03:45:17;;;;;;;0.70;0.50;;;0.80;99.90;;;;;;4996605;28;20216;-62
2021/03/06 03:47:44;;;;;;;3.47;0.40;;;0.90;99.90;;;;;;5000304;28;20049;-61
2021/03/06 03:50:15;;;;;;;1.85;0.30;;;0.90;99.90;;;;;;5004615;28;20045;-64
2021/03/06 03:52:44;;;;;;;2.42;0.30;;;0.90;99.90;;;;;;4999807;28;20168;-62
2021/03/06 03:55:11;;;;;;;3.25;0.65;;;0.90;99.90;;;;;;5003723;28;20073;-62
2021/03/06 03:57:38;;;;;;;1.23;0.88;;;0.90;99.90;;;;;;5000288;28;20049;-61
2021/03/06 04:00:08;;;;;;;1.80;0.80;;;1.00;99.90;;;;;;5002847;28;20388;-62
2021/03/06 04:02:36;;;;;;;0.85;0.43;;;1.00;99.90;;;;;;5002597;28;20049;-63
2021/03/06 04:05:08;;;;;;;1.05;0.30;;;1.00;99.90;;;;;;5001039;28;20441;-62
2021/03/06 04:07:45;;;;;;;5.28;0.68;;;1.00;99.90;;;;;;5000214;28;20112;-65
2021/03/06 04:10:15;;;;;;;4.72;0.50;;;1.00;99.90;;;;;;5002376;28;20109;-61
2021/03/06 04:12:42;;;;;;;1.40;0.50;;;1.00;99.90;;;;;;5000252;28;20076;-62
2021/03/06 04:15:11;;;;;;;0.77;0.40;;;1.00;99.90;;;;;;5003460;28;20378;-62
2021/03/06 04:17:38;;;;;;;4.00;0.63;;;1.00;99.90;;;;;;4999860;28;20104;-61
2021/03/06 04:20:07;;;;;;;7.07;0.90;;;1.00;99.90;;;;;;4997663;28;20053;-61
2021/03/06 04:22:34;;;;;;;5.80;0.77;;;1.00;99.90;;;;;;5001348;28;20070;-64
2021/03/06 04:25:01;;;;;;;5.90;0.70;;;1.00;99.90;;;;;;5002769;28;20050;-63
2021/03/06 04:27:28;;;;;;;2.15;0.98;;;1.00;99.90;;;;;;5002260;28;20046;-65
2021/03/06 04:29:54;;;;;;;4.90;0.70;;;1.00;99.90;;;;;;5000867;28;20136;-62
2021/03/06 04:32:21;;;;;;;2.15;0.52;;;1.10;99.90;;;;;;5001514;28;20080;-62
2021/03/06 04:34:48;;;;;;;1.63;0.65;;;1.10;99.90;;;;;;5002420;28;20469;-62
2021/03/06 04:37:14;;;;;;;3.00;0.40;;;1.10;99.90;;;;;;5002695;28;20154;-62
2021/03/06 04:39:40;;;;;;;1.88;0.50;;;1.10;99.90;;;;;;4992997;28;20045;-61
2021/03/06 04:42:07;;;;;;;3.67;0.63;;;1.20;99.90;;;;;;5002859;28;20070;-66
2021/03/06 04:44:33;;;;;;;2.78;0.50;;;1.20;99.90;;;;;;4997979;28;20050;-61
2021/03/06 04:47:03;;;;;;;1.80;0.50;;;1.20;99.90;;;;;;5001526;28;20148;-63
2021/03/06 04:49:31;;;;;;;2.40;0.55;;;1.20;99.90;;;;;;5002523;28;20064;-64
2021/03/06 04:51:58;;;;;;;0.95;0.50;;;1.20;99.90;;;;;;4997535;28;20044;-61
2021/03/06 04:54:25;;;;;;;10.77;1.25;;;1.20;99.90;;;;;;5001060;28;20135;-64
2021/03/06 04:57:07;;;;;;;2.13;0.45;;;1.20;99.90;;;;;;5001394;28;20159;-62
2021/03/06 04:59:34;;;;;;;3.70;0.38;;;1.20;99.90;;;;;;4997847;28;20068;-62
2021/03/06 05:02:00;;;;;;;2.60;0.63;;;1.30;99.90;;;;;;4998920;28;20057;-61
2021/03/06 05:04:29;;;;;;;3.97;0.80;;;1.30;99.90;;;;;;4997772;28;20056;-62
2021/03/06 05:06:55;;;;;;;5.15;0.70;;;1.30;99.90;;;;;;4998435;28;20058;-63
2021/03/06 05:09:22;;;;;;;1.10;0.88;;;1.30;99.90;;;;;;5000848;28;20410;-62
2021/03/06 05:11:49;;;;;;;11.57;1.02;;;1.20;99.90;;;;;;5000132;28;20127;-62
2021/03/06 05:14:15;;;;;;;4.10;0.70;;;1.30;99.90;;;;;;5000443;28;20083;-61
2021/03/06 05:16:42;;;;;;;2.55;0.70;;;1.30;99.90;;;;;;5000341;28;20100;-62
2021/03/06 05:19:09;;;;;;;1.67;0.95;;;1.30;99.90;;;;;;4998599;28;20569;-63
2021/03/06 05:21:35;;;;;;;2.45;0.70;;;1.30;99.90;;;;;;4996960;28;20068;-62
2021/03/06 05:24:06;;;;;;;2.17;0.40;;;1.30;99.90;;;;;;5003947;28;20463;-61
2021/03/06 05:26:33;;;;;;;3.22;0.50;;;1.30;99.90;;;;;;4999019;28;20054;-61
2021/03/06 05:29:00;;;;;;;3.65;1.02;;;1.30;99.90;;;;;;5000574;28;20423;-65
2021/03/06 05:31:27;;;;;;;2.42;1.10;;;1.30;99.90;;;;;;5001245;28;20516;-65
2021/03/06 05:33:54;;;;;;;8.77;0.90;;;1.30;99.90;;;;;;5001380;28;20726;-61
2021/03/06 05:36:20;;;;;;;3.90;0.40;;;1.30;99.90;;;;;;4999577;28;20045;-65
2021/03/06 05:38:47;;;;;;;2.05;0.63;;;1.30;99.90;;;;;;5003113;28;20131;-61
2021/03/06 05:41:14;;;;;;;4.47;1.23;;;1.30;99.90;;;;;;4998051;28;20042;-63
2021/03/06 05:43:40;;;;;;;7.07;1.13;;;1.30;99.90;;;;;;5000271;28;20123;-62
2021/03/06 05:46:07;;;;;;;7.82;1.45;;;1.30;99.90;;;;;;5006154;28;20785;-62
2021/03/06 05:48:34;;;;;;;3.72;0.52;;;1.40;99.90;;;;;;5001300;28;20142;-63
2021/03/06 05:51:02;;;;;;;3.75;0.52;;;1.30;99.90;;;;;;5001952;28;20112;-63
2021/03/06 05:53:30;;;;;;;4.45;0.90;;;1.40;99.90;;;;;;4995560;28;20066;-62
2021/03/06 05:55:59;;;;;;;2.20;0.63;;;1.40;99.90;;;;;;4999040;28;20045;-61
2021/03/06 05:58:30;;;;;;;2.78;0.50;;;1.40;99.90;;;;;;4998707;28;20046;-61
2021/03/06 06:00:59;;;;;;;3.72;0.95;;;1.40;99.90;;;;;;5000449;28;20100;-61
2021/03/06 06:03:26;;;;;;;7.10;1.30;;;1.40;99.90;;;;;;5001541;28;20050;-61
2021/03/06 06:05:53;;;;;;;4.00;1.08;;;1.40;99.90;;;;;;5004133;28;20046;-65
2021/03/06 06:08:19;;;;;;;11.63;1.10;;;1.40;99.90;;;;;;5002252;28;20045;-62
2021/03/06 06:10:48;;;;;;;2.15;0.90;;;1.40;99.90;;;;;;4997654;28;20062;-62
2021/03/06 06:13:15;;;;;;;2.53;1.08;;;1.40;99.90;;;;;;4998338;28;20045;-62
2021/03/06 06:15:41;;;;;;;4.80;0.93;;;1.40;99.90;;;;;;4998294;28;20050;-62
2021/03/06 06:18:08;;;;;;;16.00;2.47;;;1.40;99.90;;;;;;5001098;28;20111;-62
2021/03/06 06:20:38;;;;;;;11.85;3.10;;;1.40;99.90;;;;;;5000650;28;20054;-61
2021/03/06 06:23:12;;;;;;;13.32;2.22;;;1.40;99.90;;;;;;5011134;28;20049;-63
2021/03/06 06:25:42;;;;;;;3.47;2.22;;;1.50;99.90;;;;;;4996908;28;20049;-64
2021/03/06 06:28:18;;;;;;;24.92;3.70;;;1.50;99.90;;;;;;5001768;28;20065;-63
2021/03/06 06:31:08;;;;;;;6.22;2.78;;;1.50;99.90;;;;;;5002881;28;20050;-62
2021/03/06 06:33:34;;;;;;;4.68;2.38;;;1.50;99.90;;;;;;4998116;28;20490;-62
2021/03/06 06:36:01;;;;;;;6.68;2.45;;;1.50;99.90;;;;;;4999572;28;20050;-62
2021/03/06 06:38:40;;;;;;;8.88;2.25;;;1.50;99.90;;;;;;5005626;28;20107;-63
2021/03/06 06:41:07;;;;;;;5.43;1.90;;;1.50;99.90;;;;;;4998818;28;20496;-62
2021/03/06 06:43:33;;;;;;;10.70;2.72;;;1.60;99.90;;;;;;5004411;28;20843;-62
2021/03/06 06:46:00;;;;;;;5.32;1.77;;;1.60;99.90;;;;;;4995337;28;20783;-61
2021/03/06 06:48:26;;;;;;;12.40;2.22;;;1.60;99.90;;;;;;5004865;28;20150;-62
2021/03/06 06:51:06;;;;;;;8.23;1.92;;;1.60;99.90;;;;;;5003930;28;20556;-63
2021/03/06 06:53:32;;;;;;;8.40;1.43;;;1.60;99.90;;;;;;5000671;28;20451;-61
2021/03/06 06:55:59;;;;;;;7.70;2.88;;;1.60;99.90;;;;;;5001705;28;20054;-63
2021/03/06 06:58:41;;;;;;;5.13;2.10;;;1.70;99.90;;;;;;5010385;28;20144;-63
2021/03/06 07:01:33;;;;;;;3.95;1.10;;;1.70;99.90;;;;;;5002063;28;20119;-61
2021/03/06 07:04:01;;;;;;;6.68;1.42;;;1.70;99.90;;;;;;5006101;28;20359;-65
2021/03/06 07:06:28;;;;;;;4.00;1.38;;;1.70;99.90;;;;;;4998008;28;20106;-63
2021/03/06 07:09:13;;;;;;;8.55;1.50;;;1.70;99.90;;;;;;5004242;28;20141;-64
2021/03/06 07:11:41;;;;;;;9.30;1.17;;;1.80;99.90;;;;;;5002093;28;20092;-61
2021/03/06 07:14:08;;;;;;;8.85;1.58;;;1.80;99.90;;;;;;5003108;28;20069;-62
2021/03/06 07:16:58;;;;;;;2.05;1.00;;;1.80;99.90;;;;;;5003778;28;20050;-62
2021/03/06 07:19:30;;;;;;;4.07;1.17;;;1.80;99.90;;;;;;5005401;28;20056;-64
2021/03/06 07:22:00;;;;;;;5.18;1.75;;;1.80;99.90;;;;;;5001759;28;20065;-61
2021/03/06 07:24:28;;;;;;;8.35;1.10;;;1.80;99.90;;;;;;5007725;28;20491;-64
2021/03/06 07:26:55;;;;;;;9.43;1.83;;;1.80;99.90;;;;;;5001395;28;20057;-63
2021/03/06 07:29:22;;;;;;;6.40;1.25;;;1.80;99.90;;;;;;5004795;28;20884;-61
2021/03/06 07:31:52;;;;;;;7.15;1.63;;;1.80;99.90;;;;;;5001625;28;20462;-62
2021/03/06 07:34:19;;;;;;;;;;;1.80;99.90;;;;;;5000932;28;20075;-62
2021/03/06 07:36:47;;;;;;;5.07;1.38;;;1.80;99.90;;;;;;5003637;28;19995;-61
2021/03/06 07:39:15;;;;;;;3.25;1.17;;;1.90;99.90;;;;;;5004948;28;20049;-65
2021/03/06 07:42:26;;;;;;;7.45;1.40;;;1.90;99.90;;;;;;5001004;28;20143;-61
2021/03/06 07:44:54;;;;;;;4.50;1.52;;;1.90;99.90;;;;;;5003631;28;20065;-61
2021/03/06 07:47:27;;;;;;;3.25;1.55;;;1.90;99.90;;;;;;5002051;28;20046;-62
2021/03/06 07:49:55;;;;;;;6.18;2.38;;;1.90;99.90;;;;;;4999963;28;20204;-63
2021/03/06 07:52:22;;;;;;;2.95;1.17;;;1.90;99.90;;;;;;5002799;28;20141;-63
2021/03/06 07:54:49;;;;;;;3.13;1.15;;;1.90;99.90;;;;;;5001366;28;20050;-62
2021/03/06 07:57:16;;;;;;;14.63;2.65;;;1.90;99.90;;;;;;5001826;28;20050;-62
2021/03/06 07:59:46;;;;;;;6.90;1.27;;;1.90;99.90;;;;;;4992362;28;20061;-62
2021/03/06 08:02:38;;;;;;;2.35;1.38;;;1.90;99.90;;;;;;4999813;28;20046;-61
2021/03/06 08:05:25;;;;;;;7.25;1.20;;;1.90;99.90;;;;;;5003714;28;20453;-63
2021/03/06 08:07:51;;;;;;;8.25;1.83;;;2.00;99.90;;;;;;4995571;28;20127;-61
2021/03/06 08:10:17;;;;;;;5.28;1.42;;;2.00;99.90;;;;;;4997871;28;20065;-61
2021/03/06 08:12:44;;;;;;;2.85;1.25;;;2.00;99.90;;;;;;5001524;28;20096;-61
2021/03/06 08:15:29;;;;;;;4.65;1.40;;;2.00;99.90;;;;;;5001622;28;20134;-63
2021/03/06 08:17:57;;;;;;;6.55;2.00;;;2.00;99.90;;;;;;5000608;28;20507;-62
2021/03/06 08:20:29;;;;;;;4.50;1.45;;;2.00;99.90;;;;;;4998640;28;20079;-61
2021/03/06 08:23:19;;;;;;;6.63;1.23;;;2.00;99.90;;;;;;5003851;28;20112;-61
2021/03/06 08:26:35;;;;;;;5.30;1.48;;;2.00;99.90;;;;;;4998189;28;20073;-61
2021/03/06 08:29:25;;;;;;;9.68;1.95;;;2.10;99.90;;;;;;4996624;28;20054;-63
2021/03/06 08:32:02;;;;;;;4.40;0.98;;;2.10;99.90;;;;;;5000662;28;20073;-64
2021/03/06 08:34:54;;;;;;;8.05;1.13;;;2.10;99.90;;;;;;4998862;28;20111;-63
2021/03/06 08:37:24;;;;;;;7.70;1.30;;;2.20;99.90;;;;;;5003420;28;20156;-62
2021/03/06 08:40:11;;;;;;;9.60;1.55;;;2.30;99.90;;;;;;5000823;28;20057;-62
2021/03/06 08:42:42;;;;;;;9.13;1.70;;;2.30;99.90;;;;;;5001943;28;20053;-63
2021/03/06 08:45:11;;;;;;;9.30;1.55;;;2.30;99.90;;;;;;5002328;28;20743;-62
2021/03/06 08:47:59;;;;;;;5.55;1.20;;;2.30;99.90;;;;;;4998800;28;20045;-62
2021/03/06 08:50:27;;;;;;;12.43;1.73;;;2.30;99.90;;;;;;5003135;28;20565;-62
2021/03/06 08:52:54;;;;;;;10.73;1.05;;;2.30;99.90;;;;;;5002682;28;20532;-63
2021/03/06 08:55:23;;;;;;;22.40;2.20;;;2.30;99.90;;;;;;5002092;28;20108;-63
2021/03/06 08:57:49;;;;;;;10.52;1.77;;;2.30;99.90;;;;;;5000244;28;20368;-64
2021/03/06 09:00:27;;;;;;;13.57;1.40;;;2.30;99.90;;;;;;5001308;28;20057;-64
2021/03/06 09:02:54;;;;;;;7.85;1.60;;;2.20;99.90;;;;;;5002686;28;20064;-62
2021/03/06 09:05:26;;;;;;;9.32;1.65;;;2.20;99.90;;;;;;5001631;28;20053;-61
2021/03/06 09:07:56;;;;;;;13.05;3.15;;;2.20;99.90;;;;;;4997191;28;20111;-65
2021/03/06 09:10:25;;;;;;;19.42;2.92;;;2.10;99.90;;;;;;5001978;28;20100;-61
2021/03/06 09:13:00;;;;;;;11.98;3.38;;;2.10;99.90;;;;;;5002474;28;20115;-62
2021/03/06 09:15:54;;;;;;;10.57;1.38;;;2.10;99.90;;;;;;4998222;28;20065;-66
2021/03/06 09:18:30;;;;;;;5.97;2.13;;;2.10;99.90;;;;;;4998718;28;20049;-63
2021/03/06 09:21:09;;;;;;;9.10;2.03;;;2.10;99.90;;;;;;4998029;28;20069;-62
2021/03/06 09:23:42;;;;;;;3.95;1.50;;;2.10;99.90;;;;;;4999964;28;20049;-64
2021/03/06 09:26:29;;;;;;;10.90;1.33;;;2.20;99.90;;;;;;4999665;28;20060;-63
2021/03/06 09:28:56;;;;;;;13.48;1.42;;;2.20;99.90;;;;;;5000416;28;20137;-62
2021/03/06 09:31:29;;;;;;;17.33;1.67;;;2.20;99.90;;;;;;5000446;28;20061;-62
2021/03/06 09:33:57;;;;;;;9.38;2.08;;;2.20;99.90;;;;;;5000577;28;20401;-62
2021/03/06 09:36:28;;;;;;;5.43;1.33;;;2.30;99.90;;;;;;5001664;28;20042;-62
2021/03/06 09:38:58;;;;;;;;;;;2.30;99.90;;;;;;5004136;28;20148;-62
2021/03/06 09:41:28;;;;;;;12.45;2.97;;;2.40;99.90;;;;;;5000465;28;20258;-62
2021/03/06 09:43:57;;;;;;;6.10;1.58;;;2.50;99.90;;;;;;4999522;28;20552;-64
2021/03/06 09:46:27;;;;;;;3.97;1.73;;;2.50;99.90;;;;;;5000370;28;20081;-63
2021/03/06 09:48:59;;;;;;;20.45;1.88;;;2.50;99.90;;;;;;4998440;28;20548;-64
2021/03/06 09:51:50;;;;;;;7.32;1.35;;;2.50;99.90;;;;;;5003875;28;20119;-62
2021/03/06 09:54:19;;;;;;;10.32;1.60;;;2.60;99.90;;;;;;4996981;28;20142;-64
2021/03/06 09:56:53;;;;;;;6.05;1.55;;;2.70;99.90;;;;;;5002827;28;20061;-62
2021/03/06 09:59:21;;;;;;;12.60;1.38;;;2.80;99.90;;;;;;4997711;28;20063;-62
2021/03/06 10:01:48;;;;;;;3.88;1.38;;;2.90;99.90;;;;;;4992601;28;20057;-63
2021/03/06 10:04:22;;;;;;;10.60;1.60;;;2.90;99.90;;;;;;5002870;28;20133;-63
2021/03/06 10:06:54;;;;;;;8.90;1.38;;;2.90;99.90;;;;;;5000782;28;20106;-62
2021/03/06 10:09:23;;;;;;;5.70;3.40;;;3.00;99.90;;;;;;4998915;28;20160;-63
2021/03/06 10:11:54;;;;;;;21.40;3.28;;;3.10;99.90;;;;;;5001385;28;20069;-62
2021/03/06 10:14:25;;;;;;;8.15;2.15;;;3.10;99.90;;;;;;5004309;28;20050;-61
2021/03/06 10:16:53;;;;;;;6.72;2.65;;;3.10;99.90;;;;;;5006826;28;20087;-62
2021/03/06 10:19:24;;;;;;;3.67;1.00;;;3.00;99.90;;;;;;5001942;28;20057;-62
2021/03/06 10:22:04;;;;;;;3.70;1.40;;;3.10;99.90;;;;;;5003015;28;20402;-63
2021/03/06 10:24:31;;;;;;;5.05;1.23;;;3.20;99.90;;;;;;5004095;28;20046;-62
2021/03/06 10:27:00;;;;;;;11.13;2.13;;;3.20;99.90;;;;;;5004188;28;20046;-62
2021/03/06 10:29:28;;;;;;;14.55;2.58;;;3.20;99.90;;;;;;5003735;28;20050;-62
2021/03/06 10:32:02;;;;;;;7.32;1.45;;;3.10;99.90;;;;;;5002297;28;20100;-64
2021/03/06 10:34:48;;;;;;;6.35;1.30;;;3.20;99.90;;;;;;5004481;28;20471;-62
2021/03/06 10:37:17;;;;;;;4.97;1.00;;;3.10;99.90;;;;;;5004679;28;20050;-63
2021/03/06 10:39:54;;;;;;;8.70;1.95;;;3.10;99.90;;;;;;5001117;28;20054;-63
2021/03/06 10:42:22;;;;;;;7.78;1.80;;;3.20;99.90;;;;;;5002514;28;20406;-62
2021/03/06 10:44:49;;;;;;;5.97;2.63;;;3.20;99.90;;;;;;5003861;28;20054;-63
2021/03/06 10:47:15;;;;;;;13.27;1.85;;;3.30;99.90;;;;;;5005214;28;20065;-63
2021/03/06 10:49:48;;;;;;;13.95;2.08;;;3.40;99.90;;;;;;5000648;28;20046;-63
2021/03/06 10:52:28;;;;;;;4.63;1.75;;;3.40;99.90;;;;;;5004020;28;20506;-62
2021/03/06 10:54:58;;;;;;;19.42;2.00;;;3.30;99.90;;;;;;5002669;28;20469;-65
2021/03/06 10:57:27;;;;;;;13.73;2.00;;;3.20;99.90;;;;;;5005500;28;20199;-62
2021/03/06 10:59:54;;;;;;;10.35;1.42;;;3.20;99.90;;;;;;4998363;28;26245;-63
2021/03/06 11:02:25;;;;;;;14.65;2.03;;;3.30;99.90;;;;;;5002690;28;20113;-62
2021/03/06 11:04:54;;;;;;;9.32;2.15;;;3.40;99.90;;;;;;5004804;28;20971;-62
2021/03/06 11:07:29;;;;;;;5.68;1.35;;;3.50;99.90;;;;;;5004810;28;20132;-62
2021/03/06 11:09:59;;;;;;;15.50;2.25;;;3.50;99.90;;;;;;4997539;28;20918;-65
2021/03/06 11:12:30;;;;;;;18.83;2.03;;;3.60;99.90;;;;;;5006001;28;20050;-63
2021/03/06 11:15:07;;;;;;;8.30;2.03;;;3.60;99.90;;;;;;5003357;28;20053;-62
2021/03/06 11:17:34;;;;;;;8.35;2.08;;;3.70;99.90;;;;;;5002377;28;20050;-63
2021/03/06 11:20:01;;;;;;;8.07;2.80;;;3.70;99.90;;;;;;5008399;28;20057;-62
2021/03/06 11:22:28;;;;;;;24.13;2.20;;;3.70;99.90;;;;;;5001919;28;20454;-62
2021/03/06 11:24:54;;;;;;;13.77;2.00;;;3.70;99.90;;;;;;5004260;28;20057;-61
2021/03/06 11:27:21;;;;;;;26.45;5.50;;;3.80;99.90;;;;;;5002199;28;20493;-62
2021/03/06 11:29:47;;;;;;;10.10;2.00;;;3.80;99.90;;;;;;5002745;28;20054;-64
2021/03/06 11:32:14;;;;;;;8.32;2.17;;;3.80;99.90;;;;;;5003254;28;20077;-63
2021/03/06 11:34:40;;;;;;;21.13;3.88;;;3.90;99.90;;;;;;5002360;28;20480;-65
2021/03/06 11:37:07;;;;;;;17.48;4.13;;;3.90;99.90;;;;;;5003634;28;20068;-64
2021/03/06 11:39:33;;;;;;;21.80;3.05;;;3.90;99.90;;;;;;5001116;28;20069;-61
2021/03/06 11:41:59;;;;;;;11.23;2.45;;;4.00;99.90;;;;;;5000794;28;20111;-62
2021/03/06 11:44:26;;;;;;;8.63;2.60;;;4.00;99.90;;;;;;5001814;28;20105;-62
2021/03/06 11:46:53;;;;;;;6.90;2.75;;;4.10;99.90;;;;;;5002800;28;20129;-61
2021/03/06 11:49:19;;;;;;;10.77;2.35;;;4.00;99.90;;;;;;5002408;28;20049;-63
2021/03/06 11:51:46;;;;;;;9.63;1.90;;;4.00;99.90;;;;;;4999777;28;20048;-61
2021/03/06 11:54:12;;;;;;;4.28;1.60;;;4.00;99.90;;;;;;5001238;28;20344;-65
2021/03/06 11:56:39;;;;;;;26.67;3.50;;;4.10;99.90;;;;;;5002555;28;20557;-62
2021/03/06 11:59:05;;;;;;;9.10;2.33;;;4.10;99.90;;;;;;5005087;28;20128;-62
2021/03/06 12:01:31;;;;;;;26.50;3.67;;;4.10;99.90;;;;;;4999457;28;20045;-64
2021/03/06 12:03:58;;;;;;;14.82;2.70;;;4.20;99.90;;;;;;5001384;28;20421;-63
2021/03/06 12:06:25;;;;;;;5.60;2.28;;;4.30;99.90;;;;;;5002979;28;20152;-62
2021/03/06 12:08:52;;;;;;;9.10;2.05;;;4.40;99.90;;;;;;5000692;28;20056;-63
2021/03/06 12:11:19;;;;;;;10.80;2.42;;;4.50;99.90;;;;;;5002732;28;20042;-64
2021/03/06 12:13:45;;;;;;;10.05;2.85;;;4.40;99.90;;;;;;5002528;28;20167;-63
2021/03/06 12:16:12;;;;;;;14.88;1.95;;;4.30;99.90;;;;;;4999653;28;20108;-62
2021/03/06 12:18:38;;;;;;;9.63;1.77;;;4.40;99.90;;;;;;5002235;28;20054;-64
2021/03/06 12:21:05;;;;;;;7.07;1.75;;;4.40;99.90;;;;;;4994192;28;20156;-66
2021/03/06 12:23:32;;;;;;;7.85;2.80;;;4.50;99.90;;;;;;5004357;28;20064;-62
2021/03/06 12:25:58;;;;;;;10.75;2.42;;;4.60;99.90;;;;;;5003055;28;20057;-63
2021/03/06 12:28:25;;;;;;;6.95;2.03;;;4.70;99.90;;;;;;5004444;28;20245;-63
2021/03/06 12:30:51;;;;;;;16.10;2.65;;;4.70;99.90;;;;;;5004489;28;20046;-65
2021/03/06 12:33:18;;;;;;;5.75;1.67;;;4.70;99.90;;;;;;4999606;28;20046;-65
2021/03/06 12:35:45;;;;;;;6.25;3.47;;;4.60;99.90;;;;;;4999675;28;20058;-65
2021/03/06 12:38:11;;;;;;;12.85;2.20;;;4.60;99.90;;;;;;5002142;28;20112;-65
2021/03/06 12:40:38;;;;;;;6.43;1.52;;;4.60;99.90;;;;;;5002556;28;20050;-62
2021/03/06 12:43:08;;;;;;;10.40;2.20;;;4.70;99.90;;;;;;5000789;28;20442;-64
2021/03/06 12:45:34;;;;;;;4.53;1.38;;;4.70;99.90;;;;;;5002328;28;20050;-63
2021/03/06 12:48:01;;;;;;;4.45;1.13;;;4.70;99.90;;;;;;4999376;28;20065;-63
2021/03/06 12:50:28;;;;;;;9.70;2.38;;;4.70;99.90;;;;;;5002757;28;20052;-63
2021/03/06 12:52:54;;;;;;;8.68;2.15;;;4.80;99.90;;;;;;5001995;28;20116;-62
2021/03/06 12:55:21;;;;;;;8.02;2.30;;;4.80;99.90;;;;;;4999952;28;20455;-63
2021/03/06 12:57:47;;;;;;;8.77;1.80;;;4.90;99.90;;;;;;5000035;28;20045;-65
2021/03/06 13:00:18;;;;;;;9.73;2.40;;;4.90;99.90;;;;;;5002155;28;20061;-62
2021/03/06 13:02:56;;;;;;;18.67;2.33;;;5.00;99.90;;;;;;5001550;28;20446;-64
2021/03/06 13:05:22;;;;;;;13.82;1.75;;;5.10;99.90;;;;;;5000819;28;20611;-62
2021/03/06 13:07:49;;;;;;;14.43;1.73;;;5.10;99.90;;;;;;5000251;28;20762;-63
2021/03/06 13:10:15;;;;;;;5.50;1.25;;;5.10;99.90;;;;;;5001542;28;20139;-66